Time;durP1;ratioP1;P1;durP2;ratioP2;P2;SDS_P1;SDS_P2;PMS_P1;PMS_P2;Temp;Humidity;BMP_temperature;BMP_pressure;BME280_temperature;BME280_humidity;BME280_pressure;Samples;Min_cycle;Max_cycle;Signal;HPM_P1;HPM_P2
2021/07/15 00:00:00;;;;;;;7.13;4.97;;;17.20;99.90;;;;;;5071538;28;20665;-68
2021/07/15 00:02:27;;;;;;;5.13;4.60;;;17.20;99.90;;;;;;5071198;28;20252;-68
2021/07/15 00:04:54;;;;;;;4.97;4.47;;;17.20;99.90;;;;;;5071403;28;20210;-71
2021/07/15 00:07:21;;;;;;;5.70;5.10;;;17.20;99.90;;;;;;5070807;28;20563;-66
2021/07/15 00:09:49;;;;;;;7.05;4.53;;;17.20;99.90;;;;;;5071419;28;20669;-68
2021/07/15 00:12:16;;;;;;;6.65;4.90;;;17.20;99.90;;;;;;5070824;28;20206;-67
2021/07/15 00:14:44;;;;;;;5.63;4.72;;;17.20;99.90;;;;;;5071559;28;20206;-67
2021/07/15 00:17:12;;;;;;;8.75;5.47;;;17.20;99.90;;;;;;5070779;28;20206;-68
2021/07/15 00:19:39;;;;;;;6.72;5.25;;;17.20;99.90;;;;;;5071229;28;20252;-69
2021/07/15 00:22:06;;;;;;;8.40;5.13;;;17.20;99.90;;;;;;5070165;28;20206;-67
2021/07/15 00:24:34;;;;;;;7.22;4.50;;;17.10;99.90;;;;;;5071391;28;20622;-67
2021/07/15 00:27:01;;;;;;;10.15;5.28;;;17.10;99.90;;;;;;5071281;28;20294;-67
2021/07/15 00:29:28;;;;;;;5.05;4.55;;;17.20;99.90;;;;;;5070531;28;20207;-68
2021/07/15 00:31:55;;;;;;;6.35;5.65;;;17.20;99.90;;;;;;5071007;28;20746;-68
2021/07/15 00:34:23;;;;;;;5.10;4.60;;;17.10;99.90;;;;;;5070534;28;20198;-68
2021/07/15 00:36:50;;;;;;;9.43;5.65;;;17.10;99.90;;;;;;5070931;28;20251;-67
2021/07/15 00:39:17;;;;;;;8.73;5.65;;;17.10;99.90;;;;;;5070480;28;20286;-71
2021/07/15 00:41:44;;;;;;;6.22;4.68;;;17.10;99.90;;;;;;5070725;28;20624;-68
2021/07/15 00:44:11;;;;;;;5.80;4.63;;;17.20;99.90;;;;;;5070170;28;20206;-67
2021/07/15 00:46:38;;;;;;;7.90;5.20;;;17.10;99.90;;;;;;5070565;28;20712;-69
2021/07/15 00:49:05;;;;;;;5.50;5.10;;;17.10;99.90;;;;;;5070479;28;20560;-69
2021/07/15 00:51:33;;;;;;;6.80;5.18;;;17.10;99.90;;;;;;5070890;28;20267;-68
2021/07/15 00:54:00;;;;;;;7.20;4.93;;;17.10;99.90;;;;;;5071217;28;20202;-67
2021/07/15 00:56:28;;;;;;;6.13;4.75;;;17.20;99.90;;;;;;5070277;28;20267;-67
2021/07/15 00:58:56;;;;;;;8.43;5.50;;;17.10;99.90;;;;;;5070573;28;20212;-68
2021/07/15 01:01:22;;;;;;;6.95;5.25;;;17.10;99.90;;;;;;5070377;28;20255;-69
2021/07/15 01:03:50;;;;;;;5.60;4.88;;;17.10;99.90;;;;;;5056618;28;20209;-67
2021/07/15 01:06:17;;;;;;;4.78;4.28;;;17.10;99.90;;;;;;5069985;28;20221;-67
2021/07/15 01:08:46;;;;;;;5.72;5.22;;;17.10;99.90;;;;;;5070202;28;20202;-70
2021/07/15 01:11:28;;;;;;;4.90;4.50;;;17.10;99.90;;;;;;5070201;28;20547;-67
2021/07/15 01:14:02;;;;;;;6.28;5.25;;;17.10;99.90;;;;;;5070430;28;20202;-67
2021/07/15 01:16:34;;;;;;;5.53;4.47;;;17.10;99.90;;;;;;5070175;28;20628;-68
2021/07/15 01:19:42;;;;;;;5.90;5.32;;;17.10;99.90;;;;;;5070651;28;20210;-70
2021/07/15 01:22:13;;;;;;;9.65;5.10;;;17.00;99.90;;;;;;5069693;28;20636;-67
2021/07/15 01:25:12;;;;;;;5.18;4.68;;;17.00;99.90;;;;;;5070018;28;20236;-67
2021/07/15 01:27:55;;;;;;;6.97;4.93;;;16.90;99.90;;;;;;5070315;28;20230;-66
2021/07/15 01:30:26;;;;;;;5.60;4.95;;;16.90;99.90;;;;;;5069952;28;20206;-69
2021/07/15 01:33:02;;;;;;;7.20;5.00;;;16.90;99.90;;;;;;5070404;28;20206;-67
2021/07/15 01:35:32;;;;;;;6.40;5.10;;;16.90;99.90;;;;;;5069702;28;20201;-69
2021/07/15 01:38:03;;;;;;;5.70;4.40;;;16.90;99.90;;;;;;5070721;28;20248;-67
2021/07/15 01:40:36;;;;;;;6.28;5.05;;;16.90;99.90;;;;;;5070033;28;20260;-69
2021/07/15 01:43:07;;;;;;;9.55;4.72;;;16.90;99.90;;;;;;5057250;28;20573;-67
2021/07/15 01:45:36;;;;;;;5.50;4.85;;;16.90;99.90;;;;;;5070646;28;20275;-67
2021/07/15 01:48:04;;;;;;;6.72;5.40;;;16.80;99.90;;;;;;5070708;28;20206;-67
2021/07/15 01:50:32;;;;;;;6.50;4.68;;;16.80;99.90;;;;;;5070293;28;20203;-68
2021/07/15 01:52:59;;;;;;;5.85;4.28;;;16.80;99.90;;;;;;5070086;28;20214;-68
2021/07/15 01:55:28;;;;;;;5.47;4.97;;;16.80;99.90;;;;;;5069562;28;20213;-66
2021/07/15 01:57:56;;;;;;;7.10;4.60;;;16.70;99.90;;;;;;5069753;28;20218;-66
2021/07/15 02:00:23;;;;;;;7.55;4.28;;;16.70;99.90;;;;;;5069851;28;20209;-69
2021/07/15 02:02:53;;;;;;;6.57;4.95;;;16.70;99.90;;;;;;5070263;28;20206;-66
2021/07/15 02:05:23;;;;;;;5.38;4.90;;;16.70;99.90;;;;;;5069157;28;20203;-66
2021/07/15 02:07:50;;;;;;;6.55;5.05;;;16.70;99.90;;;;;;5070088;28;20291;-66
2021/07/15 02:10:21;;;;;;;5.28;4.63;;;16.70;99.90;;;;;;5069485;28;20248;-69
2021/07/15 02:12:49;;;;;;;5.40;4.90;;;16.70;99.90;;;;;;5069798;28;20202;-67
2021/07/15 02:15:16;;;;;;;5.22;4.40;;;16.70;99.90;;;;;;5069127;28;20206;-66
2021/07/15 02:17:46;;;;;;;6.07;5.05;;;16.60;99.90;;;;;;5067111;28;20271;-66
2021/07/15 02:20:17;;;;;;;5.40;4.90;;;16.60;99.90;;;;;;5073107;28;20210;-66
2021/07/15 02:22:45;;;;;;;9.52;4.85;;;16.50;99.90;;;;;;5072972;28;20629;-67
2021/07/15 02:25:14;;;;;;;8.88;5.45;;;16.40;99.90;;;;;;5072969;28;20674;-70
2021/07/15 02:27:43;;;;;;;4.80;4.32;;;16.30;99.90;;;;;;5073522;28;20283;-69
2021/07/15 02:30:13;;;;;;;7.20;5.55;;;16.20;99.90;;;;;;5073063;28;20214;-67
2021/07/15 02:32:41;;;;;;;7.03;5.25;;;16.20;99.90;;;;;;5073073;28;20205;-66
2021/07/15 02:35:12;;;;;;;5.85;5.32;;;16.10;99.90;;;;;;5072561;28;20214;-67
2021/07/15 02:37:42;;;;;;;5.80;4.75;;;16.10;99.90;;;;;;5072917;28;20621;-68
2021/07/15 02:40:12;;;;;;;5.68;4.88;;;16.10;99.90;;;;;;5072556;28;20744;-67
2021/07/15 02:42:40;;;;;;;9.80;5.10;;;16.10;99.90;;;;;;5073041;28;20198;-69
2021/07/15 02:45:08;;;;;;;5.43;4.90;;;16.10;99.90;;;;;;5072970;28;20206;-67
2021/07/15 02:47:35;;;;;;;5.88;5.38;;;16.20;99.90;;;;;;5072374;28;20740;-67
2021/07/15 02:50:05;;;;;;;6.38;5.78;;;16.30;99.90;;;;;;5073301;28;20201;-67
2021/07/15 02:52:32;;;;;;;7.93;5.45;;;16.30;99.90;;;;;;5072411;28;20218;-67
2021/07/15 02:55:01;;;;;;;10.65;6.97;;;16.30;99.90;;;;;;5073518;28;20238;-67
2021/07/15 02:57:34;;;;;;;6.03;5.53;;;16.40;99.90;;;;;;5072748;28;20214;-68
2021/07/15 03:00:08;;;;;;;6.03;4.75;;;16.30;99.90;;;;;;5073078;28;20206;-66
2021/07/15 03:02:45;;;;;;;5.38;4.88;;;16.30;99.90;;;;;;5072691;28;20264;-69
2021/07/15 03:05:15;;;;;;;6.43;4.85;;;16.30;99.90;;;;;;5072358;28;20202;-70
2021/07/15 03:07:48;;;;;;;11.13;5.53;;;16.20;99.90;;;;;;5072743;28;20230;-66
2021/07/15 03:10:17;;;;;;;5.93;5.07;;;16.20;99.90;;;;;;5072521;28;20608;-66
2021/07/15 03:12:46;;;;;;;6.82;4.78;;;16.20;99.90;;;;;;5072951;28;20214;-66
2021/07/15 03:15:13;;;;;;;6.78;4.68;;;16.30;99.90;;;;;;5071778;28;20559;-66
2021/07/15 03:17:44;;;;;;;6.45;5.45;;;16.20;99.90;;;;;;5072404;28;20210;-70
2021/07/15 03:20:15;;;;;;;9.73;5.53;;;16.20;99.90;;;;;;5071818;28;20203;-69
2021/07/15 03:22:47;;;;;;;7.97;5.43;;;16.20;99.90;;;;;;5072548;28;20263;-66
2021/07/15 03:25:20;;;;;;;11.00;4.82;;;16.10;99.90;;;;;;5071564;28;20214;-66
2021/07/15 03:27:49;;;;;;;6.85;5.65;;;16.00;99.90;;;;;;5072371;28;20225;-67
2021/07/15 03:30:18;;;;;;;9.90;6.10;;;16.00;99.90;;;;;;5070221;28;20256;-68
2021/07/15 03:32:46;;;;;;;8.63;6.68;;;16.10;99.90;;;;;;5072199;28;20206;-69
2021/07/15 03:35:15;;;;;;;8.23;5.70;;;16.10;99.90;;;;;;5071590;28;20253;-67
2021/07/15 03:37:43;;;;;;;6.78;6.10;;;16.10;99.90;;;;;;5071941;28;20639;-67
2021/07/15 03:40:11;;;;;;;6.70;6.03;;;16.10;99.90;;;;;;5071507;28;20255;-67
2021/07/15 03:42:41;;;;;;;7.72;5.78;;;16.10;99.90;;;;;;5071709;28;20210;-67
2021/07/15 03:45:09;;;;;;;6.63;6.03;;;16.00;99.90;;;;;;5071605;28;20206;-67
2021/07/15 03:47:37;;;;;;;6.97;5.68;;;16.10;99.90;;;;;;5071707;28;20230;-67
2021/07/15 03:50:06;;;;;;;6.35;5.75;;;16.10;99.90;;;;;;5071933;28;20210;-67
2021/07/15 03:52:34;;;;;;;8.38;5.68;;;16.00;99.90;;;;;;5071699;28;20247;-67
2021/07/15 03:55:01;;;;;;;5.95;5.43;;;16.00;99.90;;;;;;5072073;28;20206;-67
2021/07/15 03:57:29;;;;;;;7.07;6.32;;;16.10;99.90;;;;;;5071077;28;20738;-69
2021/07/15 03:59:59;;;;;;;10.65;6.38;;;16.10;99.90;;;;;;5071688;28;20210;-67
2021/07/15 04:02:28;;;;;;;8.68;5.78;;;16.00;99.90;;;;;;5071000;28;20689;-67
2021/07/15 04:04:57;;;;;;;7.20;6.13;;;16.00;99.90;;;;;;5071534;28;20206;-67
2021/07/15 04:07:28;;;;;;;8.63;5.80;;;15.90;99.90;;;;;;5071074;28;20275;-67
2021/07/15 04:09:56;;;;;;;8.93;5.95;;;16.00;99.90;;;;;;5071317;28;20198;-67
2021/07/15 04:12:25;;;;;;;8.18;6.68;;;16.00;99.90;;;;;;5071242;28;20202;-68
2021/07/15 04:15:10;;;;;;;8.98;6.93;;;16.10;99.90;;;;;;5071025;28;20259;-66
2021/07/15 04:17:42;;;;;;;7.88;7.05;;;16.00;99.90;;;;;;5071135;28;20264;-70
2021/07/15 04:20:12;;;;;;;9.32;6.32;;;16.00;99.90;;;;;;5070684;28;20628;-66
2021/07/15 04:22:42;;;;;;;6.07;5.57;;;16.00;99.90;;;;;;5071114;28;20730;-70
2021/07/15 04:25:12;;;;;;;8.05;5.80;;;16.00;99.90;;;;;;5070386;28;20351;-66
2021/07/15 04:27:42;;;;;;;8.88;6.57;;;16.00;99.90;;;;;;5070844;28;20648;-66
2021/07/15 04:30:12;;;;;;;6.82;5.85;;;16.00;99.90;;;;;;5070247;28;20210;-65
2021/07/15 04:32:42;;;;;;;6.80;6.20;;;16.00;99.90;;;;;;5071375;28;20572;-65
2021/07/15 04:35:12;;;;;;;6.97;6.00;;;16.00;99.90;;;;;;5070692;28;20670;-69
2021/07/15 04:37:41;;;;;;;6.47;5.47;;;16.00;99.90;;;;;;5070858;28;20628;-65
2021/07/15 04:40:10;;;;;;;11.70;5.95;;;16.00;99.90;;;;;;5070545;28;20206;-69
2021/07/15 04:42:39;;;;;;;12.52;6.35;;;16.00;99.90;;;;;;5069850;28;20267;-66
2021/07/15 04:45:07;;;;;;;9.30;6.80;;;16.00;99.90;;;;;;5070751;28;20210;-65
2021/07/15 04:47:39;;;;;;;10.40;6.05;;;16.10;99.90;;;;;;5070724;28;20294;-65
2021/07/15 04:50:09;;;;;;;7.93;5.80;;;16.10;99.90;;;;;;5070365;28;20218;-66
2021/07/15 04:52:39;;;;;;;7.72;7.03;;;16.20;99.90;;;;;;5070779;28;20285;-67
2021/07/15 04:55:08;;;;;;;7.03;5.43;;;16.20;99.90;;;;;;5069835;28;20244;-67
2021/07/15 04:57:36;;;;;;;8.13;6.50;;;16.20;99.90;;;;;;5070372;28;20209;-67
2021/07/15 05:00:07;;;;;;;8.57;6.40;;;16.10;99.90;;;;;;5071027;28;20629;-66
2021/07/15 05:02:36;;;;;;;10.63;6.68;;;16.20;99.90;;;;;;5070939;28;20206;-67
2021/07/15 05:05:07;;;;;;;5.70;4.80;;;16.20;99.90;;;;;;5070686;28;20206;-67
2021/07/15 05:07:34;;;;;;;6.65;6.05;;;16.20;99.90;;;;;;5070580;28;20229;-68
2021/07/15 05:10:01;;;;;;;8.93;6.22;;;16.20;99.90;;;;;;5070890;28;20289;-67
2021/07/15 05:12:28;;;;;;;8.20;5.50;;;16.20;99.90;;;;;;5070677;28;20211;-69
2021/07/15 05:14:55;;;;;;;6.90;6.10;;;16.30;99.90;;;;;;5069790;28;20226;-68
2021/07/15 05:17:22;;;;;;;7.00;6.20;;;16.30;99.90;;;;;;5070347;28;20268;-68
2021/07/15 05:19:51;;;;;;;6.75;5.45;;;16.30;99.90;;;;;;5069630;28;20627;-67
2021/07/15 05:22:18;;;;;;;9.35;6.13;;;16.40;99.90;;;;;;5070650;28;20204;-69
2021/07/15 05:24:45;;;;;;;9.35;5.10;;;16.30;99.90;;;;;;5069342;28;20271;-68
2021/07/15 05:27:12;;;;;;;8.40;6.20;;;16.40;99.90;;;;;;5070051;28;20718;-68
2021/07/15 05:29:39;;;;;;;6.95;6.15;;;16.40;99.90;;;;;;5069897;28;20670;-68
2021/07/15 05:32:06;;;;;;;7.30;5.88;;;16.40;99.90;;;;;;5070010;28;20218;-68
2021/07/15 05:34:34;;;;;;;7.60;5.05;;;16.30;99.90;;;;;;5070415;28;20701;-67
2021/07/15 05:37:04;;;;;;;7.72;6.53;;;16.30;99.90;;;;;;5070375;28;20208;-68
2021/07/15 05:39:31;;;;;;;5.18;4.40;;;16.30;99.90;;;;;;5070760;28;20293;-68
2021/07/15 05:41:58;;;;;;;7.45;5.80;;;16.40;99.90;;;;;;5069561;28;20206;-68
2021/07/15 05:44:25;;;;;;;7.10;5.80;;;16.50;99.90;;;;;;5070378;28;20256;-71
2021/07/15 05:46:52;;;;;;;6.95;4.57;;;16.50;99.90;;;;;;5069694;28;20206;-68
2021/07/15 05:49:19;;;;;;;9.10;6.15;;;16.50;99.90;;;;;;5069831;28;20209;-70
2021/07/15 05:51:48;;;;;;;7.68;5.50;;;16.50;99.90;;;;;;5069768;28;20206;-68
2021/07/15 05:54:17;;;;;;;6.68;6.03;;;16.60;99.90;;;;;;5072021;28;20209;-69
2021/07/15 05:56:44;;;;;;;6.03;5.10;;;16.60;99.90;;;;;;5073802;28;20635;-71
2021/07/15 05:59:11;;;;;;;7.03;5.00;;;16.60;99.90;;;;;;5073913;28;20201;-69
2021/07/15 06:01:38;;;;;;;5.30;4.60;;;16.50;99.90;;;;;;5073590;28;20202;-68
2021/07/15 06:04:05;;;;;;;6.50;4.78;;;16.60;99.90;;;;;;5074260;28;20202;-67
2021/07/15 06:06:32;;;;;;;9.68;4.63;;;16.60;99.90;;;;;;5074093;28;20633;-69
2021/07/15 06:08:59;;;;;;;6.32;4.60;;;16.70;99.90;;;;;;5073386;28;20758;-67
2021/07/15 06:11:27;;;;;;;8.15;5.28;;;16.80;99.90;;;;;;5073387;28;20214;-71
2021/07/15 06:13:54;;;;;;;6.63;5.32;;;16.90;99.90;;;;;;5073374;28;20206;-69
2021/07/15 06:16:21;;;;;;;4.72;4.32;;;17.00;99.90;;;;;;5073334;28;20229;-70
2021/07/15 06:18:48;;;;;;;4.88;4.38;;;17.00;99.90;;;;;;5073505;28;20206;-67
2021/07/15 06:21:15;;;;;;;7.38;5.40;;;17.00;99.90;;;;;;5073237;28;20643;-67
2021/07/15 06:23:42;;;;;;;6.03;5.53;;;17.00;99.90;;;;;;5073415;28;20214;-67
2021/07/15 06:26:10;;;;;;;4.93;4.53;;;17.00;99.90;;;;;;5073317;28;20214;-67
2021/07/15 06:28:39;;;;;;;6.55;5.15;;;16.90;99.90;;;;;;5072965;28;20241;-66
2021/07/15 06:31:06;;;;;;;4.82;4.40;;;17.00;99.90;;;;;;5073575;28;20199;-67
2021/07/15 06:33:33;;;;;;;5.28;4.68;;;17.20;99.90;;;;;;5073358;28;20263;-71
2021/07/15 06:36:01;;;;;;;8.40;5.13;;;17.30;99.90;;;;;;5072707;28;20206;-67
2021/07/15 06:38:38;;;;;;;5.63;4.78;;;17.30;99.90;;;;;;5073460;28;20259;-67
2021/07/15 06:41:06;;;;;;;6.90;6.00;;;17.30;99.90;;;;;;5073286;28;20202;-69
2021/07/15 06:43:34;;;;;;;7.53;5.78;;;17.30;99.90;;;;;;5073475;28;20240;-67
2021/07/15 06:46:02;;;;;;;7.82;5.95;;;17.30;99.90;;;;;;5073105;28;20209;-67
2021/07/15 06:48:29;;;;;;;6.10;5.50;;;17.40;99.90;;;;;;5073216;28;20234;-67
2021/07/15 06:50:57;;;;;;;7.13;5.53;;;17.40;99.90;;;;;;5072113;28;20236;-67
2021/07/15 06:53:24;;;;;;;11.40;5.88;;;17.30;99.90;;;;;;5072858;28;20210;-66
2021/07/15 06:55:51;;;;;;;6.88;5.78;;;17.40;99.90;;;;;;5072230;28;20252;-68
2021/07/15 06:58:18;;;;;;;7.00;5.72;;;17.50;99.90;;;;;;5073658;28;20603;-68
2021/07/15 07:00:46;;;;;;;5.93;5.35;;;17.50;99.90;;;;;;5071954;28;20568;-71
2021/07/15 07:03:14;;;;;;;8.10;5.35;;;17.60;99.90;;;;;;5082003;28;20206;-70
2021/07/15 07:05:41;;;;;;;6.20;5.38;;;17.60;99.90;;;;;;5073584;28;20213;-70
2021/07/15 07:08:09;;;;;;;6.38;4.65;;;17.50;99.90;;;;;;5072576;28;20279;-70
2021/07/15 07:10:36;;;;;;;5.60;4.78;;;17.60;99.90;;;;;;5072563;28;20206;-70
2021/07/15 07:13:04;;;;;;;5.85;5.32;;;17.60;99.90;;;;;;5072613;28;20206;-70
2021/07/15 07:15:31;;;;;;;4.35;3.95;;;17.70;99.90;;;;;;5072999;28;20206;-70
2021/07/15 07:17:58;;;;;;;6.05;5.25;;;17.60;99.90;;;;;;5072081;28;20203;-71
2021/07/15 07:20:26;;;;;;;5.78;4.93;;;17.50;99.90;;;;;;5072190;28;20260;-70
2021/07/15 07:22:53;;;;;;;8.00;4.97;;;17.50;99.90;;;;;;5071583;28;20207;-71
2021/07/15 07:25:20;;;;;;;4.50;4.10;;;17.50;99.90;;;;;;5072054;28;20218;-70
2021/07/15 07:27:48;;;;;;;6.25;4.72;;;17.50;99.90;;;;;;5074633;28;20230;-68
2021/07/15 07:30:17;;;;;;;5.82;4.20;;;17.40;99.90;;;;;;5071884;28;20210;-71
2021/07/15 07:32:45;;;;;;;5.97;4.53;;;17.40;99.90;;;;;;5071634;28;20214;-68
2021/07/15 07:35:15;;;;;;;4.80;3.70;;;17.40;99.90;;;;;;5075086;28;20665;-70
2021/07/15 07:37:44;;;;;;;3.67;3.38;;;17.50;99.90;;;;;;5073859;28;20210;-72
2021/07/15 07:40:13;;;;;;;4.63;4.22;;;17.50;99.90;;;;;;5076545;28;20206;-69
2021/07/15 07:42:40;;;;;;;6.55;4.40;;;17.60;99.90;;;;;;5072732;28;20264;-72
2021/07/15 07:45:12;;;;;;;5.22;4.10;;;17.70;99.90;;;;;;5082813;28;20210;-73
2021/07/15 07:47:39;;;;;;;5.38;3.50;;;17.70;99.90;;;;;;5088222;28;20586;-74
2021/07/15 07:50:09;;;;;;;4.22;3.80;;;17.60;99.90;;;;;;5086409;28;20209;-74
2021/07/15 07:52:36;;;;;;;3.75;2.95;;;17.70;99.90;;;;;;5073282;28;20735;-74
2021/07/15 07:55:06;;;;;;;4.50;3.35;;;17.80;99.90;;;;;;5071971;28;20719;-77
2021/07/15 07:57:34;;;;;;;3.20;2.92;;;17.70;99.90;;;;;;5071725;28;20214;-74
2021/07/15 08:00:01;;;;;;;3.47;3.15;;;17.70;99.90;;;;;;5071785;28;20293;-74
2021/07/15 08:02:28;;;;;;;4.25;2.83;;;17.80;99.90;;;;;;5067700;28;20202;-77
2021/07/15 08:04:55;;;;;;;3.83;3.53;;;17.90;99.90;;;;;;5070583;28;20627;-77
2021/07/15 08:07:22;;;;;;;2.92;2.72;;;17.90;99.90;;;;;;5071355;28;20747;-75
2021/07/15 08:09:48;;;;;;;4.03;3.63;;;17.90;99.90;;;;;;5069607;28;20242;-73
2021/07/15 08:12:17;;;;;;;3.17;2.95;;;17.90;99.90;;;;;;5072795;28;20206;-73
2021/07/15 08:14:45;;;;;;;6.40;3.75;;;18.00;99.90;;;;;;5078588;28;20202;-74
2021/07/15 08:17:13;;;;;;;3.55;3.20;;;18.00;99.90;;;;;;5068823;28;20214;-72
2021/07/15 08:19:40;;;;;;;3.47;3.17;;;18.00;99.90;;;;;;5070311;28;20267;-73
2021/07/15 08:22:07;;;;;;;5.60;3.35;;;18.00;99.90;;;;;;5070467;28;20202;-73
2021/07/15 08:24:34;;;;;;;3.72;3.20;;;18.10;99.90;;;;;;5070980;28;20218;-72
2021/07/15 08:27:02;;;;;;;5.45;3.40;;;18.10;99.90;;;;;;5071360;28;20327;-72
2021/07/15 08:29:30;;;;;;;3.15;2.85;;;18.20;99.90;;;;;;5071056;28;20230;-72
2021/07/15 08:31:59;;;;;;;3.67;3.38;;;18.20;99.90;;;;;;5070308;28;20689;-71
2021/07/15 08:34:26;;;;;;;3.42;2.85;;;18.20;99.90;;;;;;5085486;28;20214;-73
2021/07/15 08:36:53;;;;;;;4.18;3.47;;;18.10;99.90;;;;;;5089934;28;20201;-73
2021/07/15 08:39:20;;;;;;;3.85;3.25;;;18.00;99.90;;;;;;5070873;28;20214;-72
2021/07/15 08:41:48;;;;;;;3.58;2.92;;;18.00;99.90;;;;;;5070220;28;20202;-72
2021/07/15 08:44:17;;;;;;;5.13;2.83;;;18.10;99.90;;;;;;5070488;28;20198;-73
2021/07/15 08:46:48;;;;;;;3.53;3.22;;;18.20;99.90;;;;;;5070452;28;20210;-73
2021/07/15 08:49:17;;;;;;;3.72;3.42;;;18.20;99.90;;;;;;5070530;28;20240;-72
2021/07/15 08:51:45;;;;;;;3.95;2.85;;;18.10;99.90;;;;;;5070216;28;20210;-72
2021/07/15 08:54:14;;;;;;;4.45;2.90;;;18.20;99.90;;;;;;5070464;28;20267;-72
2021/07/15 08:56:41;;;;;;;3.28;2.92;;;18.40;99.90;;;;;;5070325;28;20206;-72
2021/07/15 08:59:12;;;;;;;3.60;3.15;;;18.50;99.90;;;;;;5070703;28;20213;-72
2021/07/15 09:01:40;;;;;;;4.00;3.70;;;18.70;99.90;;;;;;5084683;28;20208;-73
2021/07/15 09:04:10;;;;;;;3.20;2.70;;;18.70;99.90;;;;;;5088058;28;20251;-72
2021/07/15 09:06:37;;;;;;;4.40;3.03;;;18.80;99.90;;;;;;5088667;28;20206;-72
2021/07/15 09:09:05;;;;;;;6.03;3.05;;;18.80;99.90;;;;;;5089146;28;20229;-72
2021/07/15 09:11:32;;;;;;;3.53;3.22;;;18.90;99.90;;;;;;5083981;28;20714;-72
2021/07/15 09:13:59;;;;;;;4.43;3.67;;;19.00;99.90;;;;;;5086947;28;20206;-72
2021/07/15 09:16:26;;;;;;;3.72;3.38;;;19.10;99.90;;;;;;5085248;28;20214;-72
2021/07/15 09:19:00;;;;;;;2.83;2.63;;;19.30;99.90;;;;;;5084582;28;20205;-72
2021/07/15 09:21:31;;;;;;;3.20;2.83;;;19.20;99.90;;;;;;5082192;28;20206;-72
2021/07/15 09:23:59;;;;;;;4.93;3.10;;;19.20;99.90;;;;;;5085553;28;20297;-73
2021/07/15 09:26:29;;;;;;;5.35;3.25;;;19.20;99.90;;;;;;5085735;28;21031;-71
2021/07/15 09:28:56;;;;;;;3.05;2.85;;;19.40;99.90;;;;;;5085724;28;20316;-72
2021/07/15 09:31:24;;;;;;;3.42;3.13;;;19.60;99.90;;;;;;5090184;28;20258;-69
2021/07/15 09:33:51;;;;;;;4.57;3.10;;;19.70;99.90;;;;;;5090904;28;20205;-69
2021/07/15 09:36:21;;;;;;;3.20;2.80;;;19.70;99.90;;;;;;5092872;28;20304;-71
2021/07/15 09:38:50;;;;;;;4.22;3.38;;;19.50;99.90;;;;;;5089375;28;20213;-71
2021/07/15 09:41:19;;;;;;;4.00;3.33;;;19.50;99.90;;;;;;5083371;28;20206;-72
2021/07/15 09:43:48;;;;;;;4.07;3.78;;;19.60;99.90;;;;;;5086614;28;20250;-72
2021/07/15 09:46:23;;;;;;;4.15;3.33;;;19.50;99.90;;;;;;5077512;28;20202;-71
2021/07/15 09:49:01;;;;;;;4.35;3.97;;;19.40;99.90;;;;;;5087567;28;20232;-69
2021/07/15 09:51:37;;;;;;;5.18;2.90;;;19.30;99.90;;;;;;5080038;28;20232;-74
2021/07/15 09:54:07;;;;;;;5.22;3.67;;;19.10;99.90;;;;;;5077387;28;20259;-72
2021/07/15 09:56:42;;;;;;;5.85;3.67;;;19.00;99.90;;;;;;5078972;28;20259;-71
2021/07/15 09:59:09;;;;;;;4.18;3.88;;;18.90;99.90;;;;;;5074058;28;20621;-69
2021/07/15 10:01:44;;;;;;;5.85;4.10;;;18.80;99.90;;;;;;5076431;28;20211;-69
2021/07/15 10:04:11;;;;;;;4.35;3.95;;;18.80;99.90;;;;;;5074236;28;20292;-69
2021/07/15 10:06:45;;;;;;;4.35;3.95;;;18.60;99.90;;;;;;5079445;28;20252;-69
2021/07/15 10:09:25;;;;;;;4.82;4.15;;;18.60;99.90;;;;;;5080392;28;20221;-71
2021/07/15 10:11:56;;;;;;;5.22;4.75;;;18.60;99.90;;;;;;5078189;28;20247;-72
2021/07/15 10:14:33;;;;;;;6.28;4.45;;;18.70;99.90;;;;;;5075716;28;20241;-70
2021/07/15 10:17:00;;;;;;;6.30;4.53;;;19.00;99.90;;;;;;5089500;28;20199;-69
2021/07/15 10:19:27;;;;;;;5.43;4.03;;;19.20;99.90;;;;;;5084468;28;20271;-73
2021/07/15 10:21:59;;;;;;;4.03;3.63;;;19.50;99.90;;;;;;5078537;28;20210;-72
2021/07/15 10:24:28;;;;;;;6.90;4.38;;;19.90;99.90;;;;;;5078873;28;20969;-70
2021/07/15 10:26:57;;;;;;;4.57;3.38;;;20.20;99.90;;;;;;5072557;28;20735;-73
2021/07/15 10:29:25;;;;;;;3.72;3.47;;;20.30;99.90;;;;;;5073455;28;20237;-74
2021/07/15 10:31:53;;;;;;;3.22;3.00;;;20.40;99.90;;;;;;5074949;28;20210;-71
2021/07/15 10:34:21;;;;;;;4.00;3.55;;;20.30;99.90;;;;;;5074796;28;20206;-73
2021/07/15 10:36:51;;;;;;;4.68;4.10;;;20.20;99.90;;;;;;5072491;28;20210;-71
2021/07/15 10:39:18;;;;;;;4.95;4.47;;;20.20;99.90;;;;;;5075605;28;20647;-73
2021/07/15 10:41:50;;;;;;;4.00;3.65;;;20.20;99.90;;;;;;5076196;28;20248;-72
2021/07/15 10:44:18;;;;;;;3.92;3.47;;;20.20;99.90;;;;;;5077173;28;20202;-72
2021/07/15 10:46:46;;;;;;;4.68;4.05;;;20.20;99.90;;;;;;5078766;28;20252;-72
2021/07/15 10:49:14;;;;;;;3.15;2.92;;;20.20;99.90;;;;;;5075215;28;20646;-72
2021/07/15 10:51:44;;;;;;;3.83;3.45;;;20.10;99.90;;;;;;5072490;28;20579;-72
2021/07/15 10:54:13;;;;;;;6.20;3.05;;;20.00;99.90;;;;;;5072930;28;20206;-74
2021/07/15 10:56:40;;;;;;;4.03;3.70;;;20.10;99.90;;;;;;5072263;28;20210;-71
2021/07/15 10:59:22;;;;;;;4.47;3.80;;;20.20;99.90;;;;;;5072710;28;20677;-72
2021/07/15 11:01:50;;;;;;;4.32;3.92;;;20.20;99.90;;;;;;5072478;28;20727;-71
2021/07/15 11:04:20;;;;;;;7.10;4.28;;;20.40;99.90;;;;;;5072327;28;20202;-72
2021/07/15 11:06:49;;;;;;;3.80;3.50;;;20.20;99.90;;;;;;5074163;28;20304;-72
2021/07/15 11:09:28;;;;;;;3.58;3.28;;;20.10;99.90;;;;;;5077645;28;20276;-72
2021/07/15 11:11:56;;;;;;;4.20;3.75;;;19.90;99.90;;;;;;5071645;28;20703;-72
2021/07/15 11:14:39;;;;;;;3.50;3.25;;;19.80;99.90;;;;;;5072531;28;20271;-71
2021/07/15 11:17:27;;;;;;;5.97;4.35;;;20.10;99.90;;;;;;5072693;28;20255;-73
2021/07/15 11:20:00;;;;;;;5.22;3.53;;;20.70;99.90;;;;;;5072090;28;20259;-72
2021/07/15 11:22:51;;;;;;;5.55;3.80;;;21.10;99.90;;;;;;5071527;28;20260;-73
2021/07/15 11:25:33;;;;;;;3.55;3.22;;;21.40;99.90;;;;;;5069500;28;20576;-73
2021/07/15 11:28:02;;;;;;;3.15;2.72;;;21.60;99.90;;;;;;5062838;28;20606;-73
2021/07/15 11:30:47;;;;;;;3.78;3.00;;;21.50;99.90;;;;;;5072880;28;20735;-73
2021/07/15 11:33:33;;;;;;;2.83;2.63;;;21.40;99.90;;;;;;5073330;28;20203;-73
2021/07/15 11:36:04;;;;;;;4.78;2.90;;;21.60;99.90;;;;;;5061649;28;20202;-71
2021/07/15 11:38:32;;;;;;;3.47;3.17;;;22.00;99.90;;;;;;5075016;28;20645;-73
2021/07/15 11:41:04;;;;;;;3.35;2.70;;;22.10;99.90;;;;;;5071581;28;20198;-71
2021/07/15 11:43:34;;;;;;;2.42;2.22;;;21.90;99.90;;;;;;5074490;28;20238;-71
2021/07/15 11:46:17;;;;;;;2.42;2.22;;;21.80;99.90;;;;;;5075969;28;20202;-71
2021/07/15 11:48:57;;;;;;;3.03;2.83;;;21.80;99.90;;;;;;5072485;28;20619;-71
2021/07/15 11:51:26;;;;;;;4.05;2.40;;;22.20;99.90;;;;;;5075681;28;20205;-72
2021/07/15 11:54:19;;;;;;;2.97;2.58;;;22.10;99.90;;;;;;5074798;28;20316;-71
2021/07/15 11:56:47;;;;;;;3.17;2.72;;;22.00;99.90;;;;;;5073502;28;20210;-70
2021/07/15 11:59:36;;;;;;;3.25;3.05;;;21.80;99.90;;;;;;5080484;28;20214;-70
2021/07/15 12:02:08;;;;;;;3.10;2.83;;;21.70;99.90;;;;;;5075969;28;20263;-71
2021/07/15 12:05:09;;;;;;;3.03;2.78;;;21.90;99.90;;;;;;5072754;28;21225;-70
2021/07/15 12:07:37;;;;;;;2.53;2.33;;;21.90;99.90;;;;;;5071551;28;20205;-71
2021/07/15 12:10:07;;;;;;;3.10;2.83;;;22.10;99.90;;;;;;5075302;28;20229;-71
2021/07/15 12:12:34;;;;;;;2.13;1.95;;;21.80;99.90;;;;;;5083469;28;20259;-71
2021/07/15 12:15:01;;;;;;;2.88;2.58;;;21.90;99.90;;;;;;5085512;28;20251;-70
2021/07/15 12:17:32;;;;;;;2.97;2.78;;;21.70;99.90;;;;;;5089784;28;20205;-70
2021/07/15 12:20:00;;;;;;;3.72;3.42;;;21.70;99.90;;;;;;5084603;28;20284;-70
2021/07/15 12:22:28;;;;;;;3.42;3.15;;;21.60;99.90;;;;;;5081827;28;20202;-70
2021/07/15 12:25:13;;;;;;;3.17;2.88;;;21.70;99.90;;;;;;5082356;28;21125;-70
2021/07/15 12:27:42;;;;;;;4.05;2.80;;;21.50;99.90;;;;;;5059824;28;20221;-73
2021/07/15 12:30:11;;;;;;;2.38;2.17;;;21.60;99.90;;;;;;5071373;28;20317;-72
2021/07/15 12:32:52;;;;;;;3.42;3.10;;;21.90;99.90;;;;;;5072041;28;20206;-70
2021/07/15 12:35:19;;;;;;;3.05;2.83;;;22.30;99.90;;;;;;5071917;28;20677;-70
2021/07/15 12:37:46;;;;;;;3.30;3.00;;;22.40;99.90;;;;;;5070744;28;20206;-71
2021/07/15 12:40:14;;;;;;;5.28;2.95;;;22.30;99.90;;;;;;5070664;28;20735;-69
2021/07/15 12:42:41;;;;;;;4.15;3.05;;;22.50;99.90;;;;;;5070806;28;20209;-70
2021/07/15 12:45:18;;;;;;;4.03;3.72;;;22.40;99.90;;;;;;5071098;28;20256;-71
2021/07/15 12:48:00;;;;;;;4.55;3.60;;;22.30;99.90;;;;;;5070082;28;20685;-71
2021/07/15 12:50:28;;;;;;;3.30;3.00;;;22.30;99.90;;;;;;5070714;28;20719;-70
2021/07/15 12:53:12;;;;;;;3.42;3.13;;;22.50;99.90;;;;;;5057972;28;20251;-70
2021/07/15 12:55:40;;;;;;;3.00;2.80;;;22.60;99.90;;;;;;5069936;28;20731;-70
2021/07/15 12:58:07;;;;;;;3.00;2.80;;;22.50;99.90;;;;;;5070784;28;20202;-69